• Join FlightAware (Why Join?)
  • Login
  • US Flag 
12:32AM EDT


 

Airport Tracker/Info


-or-


 

Live Flight TrackerFlight Track Log ✈ EGF4086 ✈ 11-Apr-2013 ✈ KROC - KORD

Flight Track Log - Related Links

Times and Time Zones

All times are in EDT time to prevent confusion due to time zone crossing. See the EGF4086 flight status page for this flight to view local times or setup timezone preferences in your user account.

Time Position Orientation Groundspeed Altitude Reporting Facility
EDT Latitude Longitude Course Direction KTS MPH feet Rate Location/Type
04:58PM 43.1342 -77.6700 281° West 158 182 1,600  Level Cleveland Center
04:58PM 43.1597 -77.6831 340° North 204 235 2,600 1,800 Climbing Cleveland Center
05:00PM 43.1491 -78.0092 280° West  Level FlightAware Approximate
05:00PM 43.1686 -77.7908 276° West 238 274 5,000  Level Cleveland Center
05:01PM 43.1591 -78.1244 278° West  Level FlightAware Approximate
05:01PM 43.1750 -77.8872 275° West 251 289 8,400  Level Cleveland Center
05:02PM 43.1723 -78.2390 281° West  Level FlightAware Approximate
05:02PM 43.1811 -77.9781 275° West 251 289 10,300  Level Cleveland Center
05:03PM 43.1886 -78.3530 281° West  Level FlightAware Approximate
05:03PM 43.1875 -78.0775 275° West 257 296 11,300  Level Cleveland Center
05:04PM 43.1939 -78.1856 275° West 276 318 12,600 1,500 Climbing Cleveland Center
05:05PM 43.2006 -78.3047 274° West 299 344 14,300 1,740 Climbing Cleveland Center
05:06PM 43.2069 -78.4158 275° West 304 350 16,100 1,560 Climbing Cleveland Center
05:07PM 43.2089 -78.5294 271° West 304 350 17,500 960 Climbing Cleveland Center
05:08PM 43.2006 -78.6553 265° West 316 364 18,100 600 Climbing Cleveland Center
05:09PM 43.1944 -78.7892 266° West 334 384 18,800 720 Climbing Cleveland Center
05:10PM 43.1861 -78.9261 265° West 357 411 19,600 840 Climbing Cleveland Center
05:11PM 43.1778 -79.0686 265° West 370 426 20,500 900 Climbing Cleveland Center
05:12PM 43.1711 -79.2083 266° West 375 432 21,400 1,140 Climbing Cleveland Center
05:13PM 43.1500 -79.3333 257° West 370 426 22,800 1,320 Climbing Toronto Center
05:14PM 43.1500 -79.4667 270° West 370 426 24,100 1,200 Climbing Toronto Center
05:15PM 43.1333 -79.6167 261° West 350 403 25,300 1,200 Climbing Toronto Center
05:16PM 43.1333 -79.7500 270° West 340 391 26,600 1,200 Climbing Toronto Center
05:17PM 43.1167 -79.8667 259° West 340 391 27,700 660 Climbing Toronto Center
05:18PM 43.1167 -80.0000 270° West 340 391 28,000 120 Climbing Toronto Center
05:19PM 43.1000 -80.1333 260° West 350 403 28,000  Level Toronto Center
05:20PM 43.1000 -80.2667 270° West 370 426 28,000  Level Toronto Center
05:21PM 43.0833 -80.4167 261° West 370 426 28,000  Level Toronto Center
05:22PM 43.0667 -80.5500 260° West 380 437 28,000  Level Toronto Center
05:23PM 43.0667 -80.7000 270° West 370 426 28,000  Level Toronto Center
05:24PM 43.0333 -80.8500 253° West 380 437 28,000  Level Toronto Center
05:25PM 43.0333 -80.9833 270° West 370 426 28,000  Level Toronto Center
05:26PM 43.0167 -81.1167 260° West 380 437 28,000  Level Toronto Center
05:27PM 43.0167 -81.2667 270° West 380 437 28,000  Level Toronto Center
05:28PM 43.0167 -81.4167 270° West 380 437 28,000  Level Toronto Center
05:29PM 43.0167 -81.5500 270° West 380 437 28,000  Level Toronto Center
05:30PM 43.0167 -81.6833 270° West 380 437 28,000  Level Toronto Center
05:31PM 43.0167 -81.8500 270° West 360 414 28,000  Level Toronto Center
05:32PM 43.0000 -81.9833 260° West 360 414 28,000  Level Toronto Center
05:33PM 43.0000 -82.1167 270° West 370 426 28,000  Level Toronto Center
05:34PM 43.0000 -82.2500 270° West 370 426 28,000  Level Toronto Center
05:35PM 43.0000 -82.3833 270° West 370 426 28,000  Level Toronto Center
05:36PM 43.0000 -82.5500 270° West 370 426 28,000  Level Toronto Center
05:37PM 42.9833 -82.6667 259° West 370 426 28,000  Level Toronto Center
05:37PM 43.0008 -82.7294 291° West 367 422 28,000  Level Cleveland Center
05:38PM 43.0106 -82.8689 275° West 367 422 28,000  Level Cleveland Center
05:39PM 43.0392 -83.0033 286° West 367 422 28,000  Level Cleveland Center
05:40PM 43.0403 -83.1456 271° West 373 429 28,000  Level Cleveland Center
05:41PM 43.0247 -83.2783 261° West 363 418 28,000  Level Cleveland Center
05:42PM 43.0067 -83.4194 260° West 369 425 28,000  Level Cleveland Center
05:43PM 42.9889 -83.5522 260° West 369 425 28,000  Level Cleveland Center
05:44PM 42.9728 -83.6906 261° West 369 425 28,000  Level Cleveland Center
05:45PM 42.9586 -83.8286 262° West 369 425 28,000  Level Cleveland Center
05:46PM 42.9442 -83.9642 262° West 369 425 28,000  Level Cleveland Center
05:47PM 42.9317 -84.1081 263° West 369 425 28,000  Level Cleveland Center
05:48PM 42.9169 -84.2433 262° West 369 425 28,000  Level Cleveland Center
05:49PM 42.9036 -84.3986 263° West 369 425 28,000  Level Cleveland Center
05:50PM 42.8950 -84.4717 261° West 373 429 28,000  Level Chicago Center
05:51PM 42.8819 -84.6094 263° West 369 425 28,000  Level Chicago Center
05:52PM 42.8664 -84.7492 261° West 372 428 28,000  Level Chicago Center
05:53PM 42.8528 -84.8872 262° West 368 423 28,000  Level Chicago Center
05:54PM 42.8356 -85.0522 262° West 368 423 28,000  Level Chicago Center
05:55PM 42.8208 -85.1897 262° West 367 422 28,000  Level Chicago Center
05:56PM 42.8058 -85.3258 262° West 365 420 28,000 -300 Level Chicago Center
05:57PM 42.7908 -85.4628 262° West 365 420 27,500 -960 Descending Chicago Center
05:58PM 42.7694 -85.5950 258° West 359 413 26,000 -1,440 Descending Chicago Center
05:59PM 42.7447 -85.7303 256° West 364 419 24,500 -1,500 Descending Chicago Center
06:00PM 42.7206 -85.8661 256° West 367 422 22,900 -1,620 Descending Chicago Center
06:01PM 42.6942 -86.0133 256° West 341 392 21,200 -1,380 Descending Chicago Center
06:02PM 42.6708 -86.1369 256° West 334 384 20,100 -600 Descending Chicago Center
06:03PM 42.6475 -86.2656 256° West 344 396 20,000 -540 Descending Chicago Center
06:04PM 42.6231 -86.3875 255° West 338 389 19,100 -1,500 Descending Chicago Center
06:05PM 42.6003 -86.5150 256° West 345 397 17,000 -1,920 Descending Chicago Center
06:06PM 42.5764 -86.6389 255° West 341 392 15,200 -1,920 Descending Chicago Center
06:07PM 42.5467 -86.7869 255° West 340 391 13,000 -1,920 Descending Chicago Center
06:08PM 42.5147 -86.8947 248° West 313 360 11,300 -1,500 Descending Chicago Center
06:09PM 42.4858 -87.0058 251° West 312 359 10,000 -660 Descending Chicago Center
06:10PM 42.4550 -87.1103 248° West 302 348 10,000 -300 Level Chicago Center
06:11PM 42.4294 -87.2097 251° West 280 322 9,400 -780 Descending Chicago Center
06:12PM 42.4047 -87.2950 249° West 250 288 8,500 -1,080 Descending Chicago Center
06:13PM 42.3767 -87.3964 249° West 258 297 7,200 -1,080 Descending Chicago Center
06:15PM 42.3528 -87.4831 250° West 247 284 6,300 -600 Descending Chicago Center
06:16PM 42.3114 -87.5675 236° Southwest 243 280 6,000 -180 Descending Chicago Center
06:17PM 42.2489 -87.5817 190° South 236 272 6,000 -420 Level Chicago Center
06:18PM 42.1892 -87.5475 157° South 241 277 5,200 -720 Descending Chicago Center
06:19PM 42.1336 -87.4875 141° Southeast 255 293 4,600 -720 Descending Chicago Center
06:19PM 42.1000 -87.4500 140° Southeast 248 285 4,100 -300 Descending Chicago TRACON
06:21PM 42.0228 -87.4036 156° South 238 274 4,000 -60 Descending Chicago Center
06:21PM 42.0000 -87.4333 224° Southwest 208 239 4,000  Level Chicago TRACON
06:22PM 42.0000 -87.5167 270° West 182 209 4,000  Level Chicago TRACON
06:23PM 42.0000 -87.5833 270° West 179 206 4,000  Level Chicago TRACON
06:24PM 42.0000 -87.6333 270° West 176 203 4,000 -240 Level Chicago TRACON
06:25PM 42.0000 -87.7000 270° West 172 198 3,600 -420 Descending Chicago TRACON